메인 페이지
METAR-TAF:

METAR-TAF

공항 :

Ilo, 페루

위도: 17-41-45S, 경도: 071-20-35W, 고도: 22m

현재 날씨관측

예보는 1 시간 7분 전, 19:00시(UTC)에 발표되었습니다.
9kt
온도 20°C
습도 73%
기압 1015 hPa
시정 10km 이상
1500m 미만 상공 구름 및 적란운 없음

METAR: SPLO 181900Z 17009KT CAVOK 20/15 Q1015 RMK PP000

시각: 15:07 (20:07 UTC)

예보

예보는 3 시간 6분 전, 17:01시(UTC)에 발표되었습니다.
예보 대상 시간: 18일 18시부터 19일 18시까지 (UTC)
10kt
시정 10km 이상
1500m 미만 상공 구름 및 적란운 없음
19일 1200시부터 (UTC)
남동5kt
시정: 9000m
고도 3000ft 상공 구름 많음

TAF: SPLO 181701Z 1818/1918 17010KT CAVOK TX21/1819Z TN16/1911Z FM191200 14005KT 9000 BKN030

4,000개 이상의 공항 관측 자료 및 예보 (METAR 및 TAF 보고).

지도상에서 검색 가능한 기상관측소가 노란 점과 빨간 점으로 표시되어 있습니다.

기상관측소 명을 보려면 표시 위로 마우스를 이동하세요.

날씨 관측과 예보를 보려면 클릭하세요.

지도 변경 : 확대하려면 엑스 표시가 있는 녹색 버튼, 축소하려면 빼기 표시가 있는 녹색 버튼, 다음 페이지의 지도를 보려면 녹색 화살표를 클릭하세요.


METAR-TAF: